sensor_id;sensor_type;location;lat;lon;timestamp;temperature;humidity
35240;DHT22;21376;50.954;4.716;2023-05-27T00:00:46;11.90;99.90
35240;DHT22;21376;50.954;4.716;2023-05-27T00:03:15;11.80;99.90
35240;DHT22;21376;50.954;4.716;2023-05-27T00:05:44;11.90;99.90
35240;DHT22;21376;50.954;4.716;2023-05-27T00:08:10;11.90;99.90
35240;DHT22;21376;50.954;4.716;2023-05-27T00:10:41;11.70;99.90
35240;DHT22;21376;50.954;4.716;2023-05-27T00:13:07;11.60;99.90
35240;DHT22;21376;50.954;4.716;2023-05-27T00:15:37;11.60;99.90
35240;DHT22;21376;50.954;4.716;2023-05-27T00:18:03;11.40;99.90
35240;DHT22;21376;50.954;4.716;2023-05-27T00:20:34;11.50;99.90
35240;DHT22;21376;50.954;4.716;2023-05-27T00:23:06;11.60;99.90
35240;DHT22;21376;50.954;4.716;2023-05-27T00:25:32;11.60;99.90
35240;DHT22;21376;50.954;4.716;2023-05-27T00:27:58;11.40;99.90
35240;DHT22;21376;50.954;4.716;2023-05-27T00:30:27;11.40;99.90
35240;DHT22;21376;50.954;4.716;2023-05-27T00:32:53;11.20;99.90
35240;DHT22;21376;50.954;4.716;2023-05-27T00:35:22;11.30;99.90
35240;DHT22;21376;50.954;4.716;2023-05-27T00:37:48;11.30;99.90
35240;DHT22;21376;50.954;4.716;2023-05-27T00:40:17;11.20;99.90
35240;DHT22;21376;50.954;4.716;2023-05-27T00:45:15;11.10;99.90
35240;DHT22;21376;50.954;4.716;2023-05-27T00:47:42;11.10;99.90
35240;DHT22;21376;50.954;4.716;2023-05-27T00:50:12;11.10;99.90
35240;DHT22;21376;50.954;4.716;2023-05-27T00:52:38;11.00;99.90
35240;DHT22;21376;50.954;4.716;2023-05-27T00:55:07;10.90;99.90
35240;DHT22;21376;50.954;4.716;2023-05-27T00:57:34;10.90;99.90
35240;DHT22;21376;50.954;4.716;2023-05-27T01:00:02;10.90;99.90
35240;DHT22;21376;50.954;4.716;2023-05-27T01:02:33;10.90;99.90
35240;DHT22;21376;50.954;4.716;2023-05-27T01:05:03;10.90;99.90
35240;DHT22;21376;50.954;4.716;2023-05-27T01:13:00;10.90;99.90
35240;DHT22;21376;50.954;4.716;2023-05-27T01:15:30;10.80;99.90
35240;DHT22;21376;50.954;4.716;2023-05-27T01:17:56;10.70;99.90
35240;DHT22;21376;50.954;4.716;2023-05-27T01:20:26;10.70;99.90
35240;DHT22;21376;50.954;4.716;2023-05-27T01:22:56;10.70;99.90
35240;DHT22;21376;50.954;4.716;2023-05-27T01:25:24;10.60;99.90
35240;DHT22;21376;50.954;4.716;2023-05-27T01:30:21;10.60;99.90
35240;DHT22;21376;50.954;4.716;2023-05-27T01:32:52;10.40;99.90
35240;DHT22;21376;50.954;4.716;2023-05-27T01:37:46;10.30;99.90
35240;DHT22;21376;50.954;4.716;2023-05-27T01:42:47;10.20;99.90
35240;DHT22;21376;50.954;4.716;2023-05-27T01:45:15;10.20;99.90
35240;DHT22;21376;50.954;4.716;2023-05-27T01:47:42;10.10;99.90
35240;DHT22;21376;50.954;4.716;2023-05-27T01:50:24;10.10;99.90
35240;DHT22;21376;50.954;4.716;2023-05-27T01:52:51;10.10;99.90
35240;DHT22;21376;50.954;4.716;2023-05-27T01:55:18;10.10;99.90
35240;DHT22;21376;50.954;4.716;2023-05-27T02:00:17;9.90;99.90
35240;DHT22;21376;50.954;4.716;2023-05-27T02:05:12;10.00;99.90
35240;DHT22;21376;50.954;4.716;2023-05-27T02:12:43;9.70;99.90
35240;DHT22;21376;50.954;4.716;2023-05-27T02:15:09;9.90;99.90
35240;DHT22;21376;50.954;4.716;2023-05-27T02:17:39;9.80;99.90
35240;DHT22;21376;50.954;4.716;2023-05-27T02:20:06;9.80;99.90
35240;DHT22;21376;50.954;4.716;2023-05-27T02:22:35;10.00;99.90
35240;DHT22;21376;50.954;4.716;2023-05-27T02:25:04;9.50;99.90
35240;DHT22;21376;50.954;4.716;2023-05-27T02:27:36;9.60;99.90
35240;DHT22;21376;50.954;4.716;2023-05-27T02:30:07;9.70;99.90
35240;DHT22;21376;50.954;4.716;2023-05-27T02:32:35;9.70;99.90
35240;DHT22;21376;50.954;4.716;2023-05-27T02:35:00;9.50;99.90
35240;DHT22;21376;50.954;4.716;2023-05-27T02:40:04;9.50;99.90
35240;DHT22;21376;50.954;4.716;2023-05-27T02:42:32;9.50;99.90
35240;DHT22;21376;50.954;4.716;2023-05-27T02:45:05;9.50;99.90
35240;DHT22;21376;50.954;4.716;2023-05-27T02:47:31;9.50;99.90
35240;DHT22;21376;50.954;4.716;2023-05-27T02:49:58;9.30;99.90
35240;DHT22;21376;50.954;4.716;2023-05-27T02:52:34;9.40;99.90
35240;DHT22;21376;50.954;4.716;2023-05-27T02:55:04;9.40;99.90
35240;DHT22;21376;50.954;4.716;2023-05-27T02:57:35;9.20;99.90
35240;DHT22;21376;50.954;4.716;2023-05-27T03:00:03;9.10;99.90
35240;DHT22;21376;50.954;4.716;2023-05-27T03:02:31;9.20;99.90
35240;DHT22;21376;50.954;4.716;2023-05-27T03:04:58;9.00;99.90
35240;DHT22;21376;50.954;4.716;2023-05-27T03:07:27;9.00;99.90
35240;DHT22;21376;50.954;4.716;2023-05-27T03:12:24;8.90;99.90
35240;DHT22;21376;50.954;4.716;2023-05-27T03:17:19;9.00;99.90
35240;DHT22;21376;50.954;4.716;2023-05-27T03:22:18;9.00;99.90
35240;DHT22;21376;50.954;4.716;2023-05-27T03:24:43;8.90;99.90
35240;DHT22;21376;50.954;4.716;2023-05-27T03:27:12;9.00;99.90
35240;DHT22;21376;50.954;4.716;2023-05-27T03:32:14;8.80;99.90
35240;DHT22;21376;50.954;4.716;2023-05-27T03:34:44;8.60;99.90
35240;DHT22;21376;50.954;4.716;2023-05-27T03:37:16;8.80;99.90
35240;DHT22;21376;50.954;4.716;2023-05-27T03:39:49;8.80;99.90
35240;DHT22;21376;50.954;4.716;2023-05-27T03:42:18;8.80;99.90
35240;DHT22;21376;50.954;4.716;2023-05-27T03:44:57;9.00;99.90
35240;DHT22;21376;50.954;4.716;2023-05-27T03:47:23;8.80;99.90
35240;DHT22;21376;50.954;4.716;2023-05-27T03:49:49;8.80;99.90
35240;DHT22;21376;50.954;4.716;2023-05-27T03:52:15;8.70;99.90
35240;DHT22;21376;50.954;4.716;2023-05-27T03:54:41;8.60;99.90
35240;DHT22;21376;50.954;4.716;2023-05-27T03:57:13;8.70;99.90
35240;DHT22;21376;50.954;4.716;2023-05-27T03:59:41;8.80;99.90
35240;DHT22;21376;50.954;4.716;2023-05-27T04:02:12;8.90;99.90
35240;DHT22;21376;50.954;4.716;2023-05-27T04:04:40;8.70;99.90
35240;DHT22;21376;50.954;4.716;2023-05-27T04:07:07;8.90;99.90
35240;DHT22;21376;50.954;4.716;2023-05-27T04:12:13;9.00;99.90
35240;DHT22;21376;50.954;4.716;2023-05-27T04:25:22;9.30;99.90
35240;DHT22;21376;50.954;4.716;2023-05-27T04:27:51;9.30;99.90
35240;DHT22;21376;50.954;4.716;2023-05-27T04:30:20;9.40;99.90
35240;DHT22;21376;50.954;4.716;2023-05-27T04:32:48;9.30;99.90
35240;DHT22;21376;50.954;4.716;2023-05-27T04:35:15;9.60;99.90
35240;DHT22;21376;50.954;4.716;2023-05-27T04:37:43;9.50;99.90
35240;DHT22;21376;50.954;4.716;2023-05-27T04:40:12;9.70;99.90
35240;DHT22;21376;50.954;4.716;2023-05-27T04:42:44;10.20;99.90
35240;DHT22;21376;50.954;4.716;2023-05-27T04:45:19;11.10;99.90
35240;DHT22;21376;50.954;4.716;2023-05-27T04:47:44;11.10;99.90
35240;DHT22;21376;50.954;4.716;2023-05-27T04:50:13;11.00;99.90
35240;DHT22;21376;50.954;4.716;2023-05-27T04:52:40;10.90;99.90
35240;DHT22;21376;50.954;4.716;2023-05-27T04:55:11;10.70;99.90
35240;DHT22;21376;50.954;4.716;2023-05-27T04:57:36;10.50;99.90
35240;DHT22;21376;50.954;4.716;2023-05-27T05:00:07;10.40;99.90
35240;DHT22;21376;50.954;4.716;2023-05-27T05:02:34;10.50;99.90
35240;DHT22;21376;50.954;4.716;2023-05-27T05:05:05;11.00;99.90
35240;DHT22;21376;50.954;4.716;2023-05-27T05:07:32;12.20;99.90
35240;DHT22;21376;50.954;4.716;2023-05-27T05:10:11;13.30;99.90
35240;DHT22;21376;50.954;4.716;2023-05-27T05:12:37;14.00;99.90
35240;DHT22;21376;50.954;4.716;2023-05-27T05:15:05;14.50;99.90
35240;DHT22;21376;50.954;4.716;2023-05-27T05:17:34;14.20;99.90
35240;DHT22;21376;50.954;4.716;2023-05-27T05:20:03;13.60;99.90
35240;DHT22;21376;50.954;4.716;2023-05-27T05:22:29;13.00;99.90
35240;DHT22;21376;50.954;4.716;2023-05-27T05:25:13;13.10;99.90
35240;DHT22;21376;50.954;4.716;2023-05-27T05:27:41;14.10;99.90
35240;DHT22;21376;50.954;4.716;2023-05-27T05:30:13;15.40;99.90
35240;DHT22;21376;50.954;4.716;2023-05-27T05:32:41;16.60;99.90
35240;DHT22;21376;50.954;4.716;2023-05-27T05:35:19;16.40;99.90
35240;DHT22;21376;50.954;4.716;2023-05-27T05:37:51;17.60;99.90
35240;DHT22;21376;50.954;4.716;2023-05-27T05:40:17;18.90;99.90
35240;DHT22;21376;50.954;4.716;2023-05-27T05:42:49;19.80;99.90
35240;DHT22;21376;50.954;4.716;2023-05-27T05:45:16;20.00;99.90
35240;DHT22;21376;50.954;4.716;2023-05-27T05:47:41;19.60;99.90
35240;DHT22;21376;50.954;4.716;2023-05-27T05:50:07;20.00;99.90
35240;DHT22;21376;50.954;4.716;2023-05-27T05:52:34;20.00;99.90
35240;DHT22;21376;50.954;4.716;2023-05-27T05:55:04;20.80;99.90
35240;DHT22;21376;50.954;4.716;2023-05-27T05:57:35;21.20;99.90
35240;DHT22;21376;50.954;4.716;2023-05-27T06:00:04;21.90;99.90
35240;DHT22;21376;50.954;4.716;2023-05-27T06:02:41;21.70;99.90
35240;DHT22;21376;50.954;4.716;2023-05-27T06:05:08;21.60;99.90
35240;DHT22;21376;50.954;4.716;2023-05-27T06:07:34;20.70;99.90
35240;DHT22;21376;50.954;4.716;2023-05-27T06:12:33;21.50;99.90
35240;DHT22;21376;50.954;4.716;2023-05-27T06:15:00;22.20;98.50
35240;DHT22;21376;50.954;4.716;2023-05-27T06:17:25;22.30;97.90
35240;DHT22;21376;50.954;4.716;2023-05-27T06:19:51;22.20;97.80
35240;DHT22;21376;50.954;4.716;2023-05-27T06:22:26;22.70;97.10
35240;DHT22;21376;50.954;4.716;2023-05-27T06:24:55;23.20;96.00
35240;DHT22;21376;50.954;4.716;2023-05-27T06:27:20;24.20;94.60
35240;DHT22;21376;50.954;4.716;2023-05-27T06:29:46;23.30;94.50
35240;DHT22;21376;50.954;4.716;2023-05-27T06:32:18;23.50;94.60
35240;DHT22;21376;50.954;4.716;2023-05-27T06:34:46;23.20;94.00
35240;DHT22;21376;50.954;4.716;2023-05-27T06:37:12;23.30;94.50
35240;DHT22;21376;50.954;4.716;2023-05-27T06:39:40;22.00;96.20
35240;DHT22;21376;50.954;4.716;2023-05-27T06:42:07;22.70;95.20
35240;DHT22;21376;50.954;4.716;2023-05-27T06:44:36;23.70;93.90
35240;DHT22;21376;50.954;4.716;2023-05-27T06:47:07;23.70;93.60
35240;DHT22;21376;50.954;4.716;2023-05-27T06:49:35;24.80;92.50
35240;DHT22;21376;50.954;4.716;2023-05-27T06:52:08;25.60;91.30
35240;DHT22;21376;50.954;4.716;2023-05-27T06:54:46;26.20;89.40
35240;DHT22;21376;50.954;4.716;2023-05-27T06:57:14;25.40;90.70
35240;DHT22;21376;50.954;4.716;2023-05-27T06:59:43;26.20;89.40
35240;DHT22;21376;50.954;4.716;2023-05-27T07:02:08;26.20;87.20
35240;DHT22;21376;50.954;4.716;2023-05-27T07:04:35;25.90;87.70
35240;DHT22;21376;50.954;4.716;2023-05-27T07:07:01;25.90;87.40
35240;DHT22;21376;50.954;4.716;2023-05-27T07:09:33;25.60;87.70
35240;DHT22;21376;50.954;4.716;2023-05-27T07:14:36;26.10;86.20
35240;DHT22;21376;50.954;4.716;2023-05-27T07:17:15;27.20;83.70
35240;DHT22;21376;50.954;4.716;2023-05-27T07:19:44;28.10;82.30
35240;DHT22;21376;50.954;4.716;2023-05-27T07:24:46;27.70;80.50
35240;DHT22;21376;50.954;4.716;2023-05-27T07:27:15;27.80;79.40
35240;DHT22;21376;50.954;4.716;2023-05-27T07:29:43;26.70;82.40
35240;DHT22;21376;50.954;4.716;2023-05-27T07:32:11;27.70;80.70
35240;DHT22;21376;50.954;4.716;2023-05-27T07:37:12;29.10;77.50
35240;DHT22;21376;50.954;4.716;2023-05-27T07:39:39;30.60;75.50
35240;DHT22;21376;50.954;4.716;2023-05-27T07:42:06;30.00;74.80
35240;DHT22;21376;50.954;4.716;2023-05-27T07:44:34;31.10;72.30
35240;DHT22;21376;50.954;4.716;2023-05-27T07:47:00;30.80;72.10
35240;DHT22;21376;50.954;4.716;2023-05-27T07:49:28;29.00;74.60
35240;DHT22;21376;50.954;4.716;2023-05-27T07:51:53;29.70;72.70
35240;DHT22;21376;50.954;4.716;2023-05-27T07:54:30;28.80;73.50
35240;DHT22;21376;50.954;4.716;2023-05-27T07:56:59;28.90;73.10
35240;DHT22;21376;50.954;4.716;2023-05-27T07:59:25;27.40;78.20
35240;DHT22;21376;50.954;4.716;2023-05-27T08:01:54;29.50;74.60
35240;DHT22;21376;50.954;4.716;2023-05-27T08:04:27;31.30;69.60
35240;DHT22;21376;50.954;4.716;2023-05-27T08:06:54;31.30;69.80
35240;DHT22;21376;50.954;4.716;2023-05-27T08:09:20;30.30;70.30
35240;DHT22;21376;50.954;4.716;2023-05-27T08:11:49;32.30;68.60
35240;DHT22;21376;50.954;4.716;2023-05-27T08:14:18;32.70;66.10
35240;DHT22;21376;50.954;4.716;2023-05-27T08:16:49;32.70;65.80
35240;DHT22;21376;50.954;4.716;2023-05-27T08:19:16;33.10;64.00
35240;DHT22;21376;50.954;4.716;2023-05-27T08:21:49;33.60;64.10
35240;DHT22;21376;50.954;4.716;2023-05-27T08:24:18;32.30;64.20
35240;DHT22;21376;50.954;4.716;2023-05-27T08:29:16;33.10;63.80
35240;DHT22;21376;50.954;4.716;2023-05-27T08:31:45;32.70;63.90
35240;DHT22;21376;50.954;4.716;2023-05-27T08:34:14;32.70;65.20
35240;DHT22;21376;50.954;4.716;2023-05-27T08:36:42;34.10;61.80
35240;DHT22;21376;50.954;4.716;2023-05-27T08:39:09;34.20;60.50
35240;DHT22;21376;50.954;4.716;2023-05-27T08:41:36;33.60;60.70
35240;DHT22;21376;50.954;4.716;2023-05-27T08:44:03;33.80;60.40
35240;DHT22;21376;50.954;4.716;2023-05-27T08:49:01;32.20;62.80
35240;DHT22;21376;50.954;4.716;2023-05-27T08:51:30;31.60;63.00
35240;DHT22;21376;50.954;4.716;2023-05-27T08:53:58;32.40;63.70
35240;DHT22;21376;50.954;4.716;2023-05-27T08:56:25;33.20;60.90
35240;DHT22;21376;50.954;4.716;2023-05-27T08:58:55;32.50;61.20
35240;DHT22;21376;50.954;4.716;2023-05-27T09:01:22;31.50;62.80
35240;DHT22;21376;50.954;4.716;2023-05-27T09:03:51;30.80;63.30
35240;DHT22;21376;50.954;4.716;2023-05-27T09:06:17;29.40;66.80
35240;DHT22;21376;50.954;4.716;2023-05-27T09:08:42;28.50;68.40
35240;DHT22;21376;50.954;4.716;2023-05-27T09:17:07;30.20;67.00
35240;DHT22;21376;50.954;4.716;2023-05-27T09:22:03;29.50;70.20
35240;DHT22;21376;50.954;4.716;2023-05-27T09:29:28;31.90;64.50
35240;DHT22;21376;50.954;4.716;2023-05-27T09:31:56;32.90;64.30
35240;DHT22;21376;50.954;4.716;2023-05-27T09:34:24;32.90;62.10
35240;DHT22;21376;50.954;4.716;2023-05-27T09:39:21;36.10;58.40
35240;DHT22;21376;50.954;4.716;2023-05-27T09:41:52;35.30;58.50
35240;DHT22;21376;50.954;4.716;2023-05-27T09:44:19;35.90;58.70
35240;DHT22;21376;50.954;4.716;2023-05-27T09:46:45;36.80;57.80
35240;DHT22;21376;50.954;4.716;2023-05-27T09:49:14;37.50;56.30
35240;DHT22;21376;50.954;4.716;2023-05-27T09:51:47;35.70;56.00
35240;DHT22;21376;50.954;4.716;2023-05-27T09:54:18;34.30;57.80
35240;DHT22;21376;50.954;4.716;2023-05-27T09:57:04;34.50;57.10
35240;DHT22;21376;50.954;4.716;2023-05-27T10:02:14;34.10;59.50
35240;DHT22;21376;50.954;4.716;2023-05-27T10:04:44;35.10;57.10
35240;DHT22;21376;50.954;4.716;2023-05-27T10:07:16;34.70;57.20
35240;DHT22;21376;50.954;4.716;2023-05-27T10:09:45;35.50;56.30
35240;DHT22;21376;50.954;4.716;2023-05-27T10:12:12;35.90;56.00
35240;DHT22;21376;50.954;4.716;2023-05-27T10:14:43;35.60;56.90
35240;DHT22;21376;50.954;4.716;2023-05-27T10:17:13;35.30;56.90
35240;DHT22;21376;50.954;4.716;2023-05-27T10:19:49;36.60;55.40
35240;DHT22;21376;50.954;4.716;2023-05-27T10:22:18;36.30;56.90
35240;DHT22;21376;50.954;4.716;2023-05-27T10:30:21;35.00;58.10
35240;DHT22;21376;50.954;4.716;2023-05-27T10:32:56;35.80;55.10
35240;DHT22;21376;50.954;4.716;2023-05-27T10:35:38;36.10;56.20
35240;DHT22;21376;50.954;4.716;2023-05-27T10:38:16;36.30;54.70
35240;DHT22;21376;50.954;4.716;2023-05-27T10:40:43;36.80;53.30
35240;DHT22;21376;50.954;4.716;2023-05-27T10:48:20;36.00;54.00
35240;DHT22;21376;50.954;4.716;2023-05-27T10:53:21;36.40;53.50
35240;DHT22;21376;50.954;4.716;2023-05-27T10:55:52;36.00;55.20
35240;DHT22;21376;50.954;4.716;2023-05-27T10:58:19;36.40;52.30
35240;DHT22;21376;50.954;4.716;2023-05-27T11:00:52;36.60;53.50
35240;DHT22;21376;50.954;4.716;2023-05-27T11:05:43;35.90;54.00
35240;DHT22;21376;50.954;4.716;2023-05-27T11:08:13;37.00;53.80
35240;DHT22;21376;50.954;4.716;2023-05-27T11:10:43;37.90;50.20
35240;DHT22;21376;50.954;4.716;2023-05-27T11:13:10;36.40;49.00
35240;DHT22;21376;50.954;4.716;2023-05-27T11:15:39;35.80;50.30
35240;DHT22;21376;50.954;4.716;2023-05-27T11:18:11;33.90;51.90
35240;DHT22;21376;50.954;4.716;2023-05-27T11:20:38;33.50;51.20
35240;DHT22;21376;50.954;4.716;2023-05-27T11:23:10;34.00;51.70
35240;DHT22;21376;50.954;4.716;2023-05-27T11:25:48;33.00;52.10
35240;DHT22;21376;50.954;4.716;2023-05-27T11:33:40;33.90;53.20
35240;DHT22;21376;50.954;4.716;2023-05-27T11:36:10;34.30;51.80
35240;DHT22;21376;50.954;4.716;2023-05-27T11:41:15;31.70;53.60
35240;DHT22;21376;50.954;4.716;2023-05-27T11:49:13;32.80;52.90
35240;DHT22;21376;50.954;4.716;2023-05-27T11:51:41;34.10;52.90
35240;DHT22;21376;50.954;4.716;2023-05-27T11:54:14;32.90;52.10
35240;DHT22;21376;50.954;4.716;2023-05-27T11:56:40;33.00;53.80
35240;DHT22;21376;50.954;4.716;2023-05-27T11:59:09;33.90;52.00
35240;DHT22;21376;50.954;4.716;2023-05-27T12:01:37;34.60;51.60
35240;DHT22;21376;50.954;4.716;2023-05-27T12:04:04;35.20;50.60
35240;DHT22;21376;50.954;4.716;2023-05-27T12:06:32;31.70;53.00
35240;DHT22;21376;50.954;4.716;2023-05-27T12:09:01;31.80;55.90
35240;DHT22;21376;50.954;4.716;2023-05-27T12:11:30;32.30;52.80
35240;DHT22;21376;50.954;4.716;2023-05-27T12:13:59;31.50;53.60
35240;DHT22;21376;50.954;4.716;2023-05-27T12:16:31;30.30;54.20
35240;DHT22;21376;50.954;4.716;2023-05-27T12:19:03;29.90;54.20
35240;DHT22;21376;50.954;4.716;2023-05-27T12:21:32;29.40;56.70
35240;DHT22;21376;50.954;4.716;2023-05-27T12:23:59;30.80;55.00
35240;DHT22;21376;50.954;4.716;2023-05-27T12:28:56;28.70;56.50
35240;DHT22;21376;50.954;4.716;2023-05-27T12:34:23;29.70;54.60
35240;DHT22;21376;50.954;4.716;2023-05-27T12:36:55;28.30;57.00
35240;DHT22;21376;50.954;4.716;2023-05-27T12:41:53;29.20;56.40
35240;DHT22;21376;50.954;4.716;2023-05-27T12:46:48;31.00;55.50
35240;DHT22;21376;50.954;4.716;2023-05-27T12:51:46;29.40;54.60
35240;DHT22;21376;50.954;4.716;2023-05-27T12:56:44;30.20;55.10
35240;DHT22;21376;50.954;4.716;2023-05-27T12:59:12;29.90;56.20
35240;DHT22;21376;50.954;4.716;2023-05-27T13:01:44;31.10;53.80
35240;DHT22;21376;50.954;4.716;2023-05-27T13:04:13;31.90;52.70
35240;DHT22;21376;50.954;4.716;2023-05-27T13:06:42;31.30;52.10
35240;DHT22;21376;50.954;4.716;2023-05-27T13:09:11;32.40;51.00
35240;DHT22;21376;50.954;4.716;2023-05-27T13:11:44;32.90;50.10
35240;DHT22;21376;50.954;4.716;2023-05-27T13:14:13;31.70;52.10
35240;DHT22;21376;50.954;4.716;2023-05-27T13:16:44;30.70;51.80
35240;DHT22;21376;50.954;4.716;2023-05-27T13:19:14;28.70;53.30
35240;DHT22;21376;50.954;4.716;2023-05-27T13:21:43;28.10;55.90
35240;DHT22;21376;50.954;4.716;2023-05-27T13:24:25;26.60;57.90
35240;DHT22;21376;50.954;4.716;2023-05-27T13:29:22;26.70;58.90
35240;DHT22;21376;50.954;4.716;2023-05-27T13:31:49;26.40;58.40
35240;DHT22;21376;50.954;4.716;2023-05-27T13:34:17;25.70;60.60
35240;DHT22;21376;50.954;4.716;2023-05-27T13:39:11;24.90;61.00
35240;DHT22;21376;50.954;4.716;2023-05-27T13:44:42;24.70;61.40
35240;DHT22;21376;50.954;4.716;2023-05-27T13:47:08;24.70;61.20
35240;DHT22;21376;50.954;4.716;2023-05-27T13:49:37;24.70;63.00
35240;DHT22;21376;50.954;4.716;2023-05-27T13:54:43;24.80;61.00
35240;DHT22;21376;50.954;4.716;2023-05-27T13:57:12;24.90;61.40
35240;DHT22;21376;50.954;4.716;2023-05-27T13:59:39;25.10;64.30
35240;DHT22;21376;50.954;4.716;2023-05-27T14:02:10;25.20;63.70
35240;DHT22;21376;50.954;4.716;2023-05-27T14:04:39;25.20;63.10
35240;DHT22;21376;50.954;4.716;2023-05-27T14:07:07;25.10;60.40
35240;DHT22;21376;50.954;4.716;2023-05-27T14:12:20;24.70;63.20
35240;DHT22;21376;50.954;4.716;2023-05-27T14:14:46;24.70;64.60
35240;DHT22;21376;50.954;4.716;2023-05-27T14:17:15;24.90;59.60
35240;DHT22;21376;50.954;4.716;2023-05-27T14:19:43;24.80;59.80
35240;DHT22;21376;50.954;4.716;2023-05-27T14:22:12;24.30;61.30
35240;DHT22;21376;50.954;4.716;2023-05-27T14:24:41;24.10;62.00
35240;DHT22;21376;50.954;4.716;2023-05-27T14:29:35;24.30;63.30
35240;DHT22;21376;50.954;4.716;2023-05-27T14:32:05;24.20;62.80
35240;DHT22;21376;50.954;4.716;2023-05-27T14:34:34;24.30;61.10
35240;DHT22;21376;50.954;4.716;2023-05-27T14:37:03;24.40;61.40
35240;DHT22;21376;50.954;4.716;2023-05-27T14:39:32;24.30;62.50
35240;DHT22;21376;50.954;4.716;2023-05-27T14:42:01;24.10;60.70
35240;DHT22;21376;50.954;4.716;2023-05-27T14:44:31;23.80;65.30
35240;DHT22;21376;50.954;4.716;2023-05-27T14:49:26;24.30;63.10
35240;DHT22;21376;50.954;4.716;2023-05-27T14:51:55;24.70;62.20
35240;DHT22;21376;50.954;4.716;2023-05-27T14:54:21;24.90;63.00
35240;DHT22;21376;50.954;4.716;2023-05-27T14:56:48;24.70;62.00
35240;DHT22;21376;50.954;4.716;2023-05-27T14:59:16;24.60;62.30
35240;DHT22;21376;50.954;4.716;2023-05-27T15:01:41;24.50;62.40
35240;DHT22;21376;50.954;4.716;2023-05-27T15:04:14;24.30;63.10
35240;DHT22;21376;50.954;4.716;2023-05-27T15:06:40;24.20;63.20
35240;DHT22;21376;50.954;4.716;2023-05-27T15:09:12;24.20;63.10
35240;DHT22;21376;50.954;4.716;2023-05-27T15:11:39;24.30;62.50
35240;DHT22;21376;50.954;4.716;2023-05-27T15:14:05;24.40;62.00
35240;DHT22;21376;50.954;4.716;2023-05-27T15:16:32;24.30;61.80
35240;DHT22;21376;50.954;4.716;2023-05-27T15:19:00;24.20;63.30
35240;DHT22;21376;50.954;4.716;2023-05-27T15:21:25;24.20;62.60
35240;DHT22;21376;50.954;4.716;2023-05-27T15:23:54;24.40;62.20
35240;DHT22;21376;50.954;4.716;2023-05-27T15:28:58;24.30;62.40
35240;DHT22;21376;50.954;4.716;2023-05-27T15:31:27;24.40;59.10
35240;DHT22;21376;50.954;4.716;2023-05-27T15:33:55;24.20;59.10
35240;DHT22;21376;50.954;4.716;2023-05-27T15:36:24;23.80;60.10
35240;DHT22;21376;50.954;4.716;2023-05-27T15:38:51;23.90;63.00
35240;DHT22;21376;50.954;4.716;2023-05-27T15:41:18;24.10;61.40
35240;DHT22;21376;50.954;4.716;2023-05-27T15:46:12;24.40;61.60
35240;DHT22;21376;50.954;4.716;2023-05-27T15:51:27;24.20;63.50
35240;DHT22;21376;50.954;4.716;2023-05-27T15:56:26;24.30;59.50
35240;DHT22;21376;50.954;4.716;2023-05-27T16:01:22;24.10;58.10
35240;DHT22;21376;50.954;4.716;2023-05-27T16:03:54;24.00;59.40
35240;DHT22;21376;50.954;4.716;2023-05-27T16:06:20;24.10;60.10
35240;DHT22;21376;50.954;4.716;2023-05-27T16:08:47;24.00;60.40
35240;DHT22;21376;50.954;4.716;2023-05-27T16:11:12;24.20;60.80
35240;DHT22;21376;50.954;4.716;2023-05-27T16:13:39;24.30;61.50
35240;DHT22;21376;50.954;4.716;2023-05-27T16:16:07;24.40;61.10
35240;DHT22;21376;50.954;4.716;2023-05-27T16:18:36;24.50;59.60
35240;DHT22;21376;50.954;4.716;2023-05-27T16:21:02;24.40;59.70
35240;DHT22;21376;50.954;4.716;2023-05-27T16:23:30;24.40;58.50
35240;DHT22;21376;50.954;4.716;2023-05-27T16:28:25;23.90;59.80
35240;DHT22;21376;50.954;4.716;2023-05-27T16:33:23;24.10;63.90
35240;DHT22;21376;50.954;4.716;2023-05-27T16:35:53;24.10;65.00
35240;DHT22;21376;50.954;4.716;2023-05-27T16:38:22;24.40;64.60
35240;DHT22;21376;50.954;4.716;2023-05-27T16:40:50;24.20;62.50
35240;DHT22;21376;50.954;4.716;2023-05-27T16:43:33;24.10;61.90
35240;DHT22;21376;50.954;4.716;2023-05-27T16:46:09;24.00;64.80
35240;DHT22;21376;50.954;4.716;2023-05-27T16:48:36;24.10;62.70
35240;DHT22;21376;50.954;4.716;2023-05-27T16:51:05;24.10;63.80
35240;DHT22;21376;50.954;4.716;2023-05-27T16:53:32;24.10;63.40
35240;DHT22;21376;50.954;4.716;2023-05-27T16:56:04;24.10;63.60
35240;DHT22;21376;50.954;4.716;2023-05-27T16:58:56;24.00;64.10
35240;DHT22;21376;50.954;4.716;2023-05-27T17:01:23;23.90;63.90
35240;DHT22;21376;50.954;4.716;2023-05-27T17:03:49;23.90;64.00
35240;DHT22;21376;50.954;4.716;2023-05-27T17:08:44;23.70;64.10
35240;DHT22;21376;50.954;4.716;2023-05-27T17:13:38;23.60;65.10
35240;DHT22;21376;50.954;4.716;2023-05-27T17:16:05;23.60;64.10
35240;DHT22;21376;50.954;4.716;2023-05-27T17:18:32;23.50;64.00
35240;DHT22;21376;50.954;4.716;2023-05-27T17:20:58;23.50;64.20
35240;DHT22;21376;50.954;4.716;2023-05-27T17:23:25;23.40;64.00
35240;DHT22;21376;50.954;4.716;2023-05-27T17:25:50;23.40;65.10
35240;DHT22;21376;50.954;4.716;2023-05-27T17:28:16;23.30;64.60
35240;DHT22;21376;50.954;4.716;2023-05-27T17:30:43;23.20;64.60
35240;DHT22;21376;50.954;4.716;2023-05-27T17:33:10;23.30;64.20
35240;DHT22;21376;50.954;4.716;2023-05-27T17:35:35;23.40;64.80
35240;DHT22;21376;50.954;4.716;2023-05-27T17:38:01;23.40;66.00
35240;DHT22;21376;50.954;4.716;2023-05-27T17:40:28;23.40;65.00
35240;DHT22;21376;50.954;4.716;2023-05-27T17:42:55;23.40;66.20
35240;DHT22;21376;50.954;4.716;2023-05-27T17:45:21;23.20;65.10
35240;DHT22;21376;50.954;4.716;2023-05-27T17:47:47;23.10;66.00
35240;DHT22;21376;50.954;4.716;2023-05-27T17:50:12;23.10;67.50
35240;DHT22;21376;50.954;4.716;2023-05-27T17:55:07;22.80;68.70
35240;DHT22;21376;50.954;4.716;2023-05-27T17:57:33;22.90;67.30
35240;DHT22;21376;50.954;4.716;2023-05-27T18:00:02;22.80;68.90
35240;DHT22;21376;50.954;4.716;2023-05-27T18:02:29;22.90;67.10
35240;DHT22;21376;50.954;4.716;2023-05-27T18:04:58;22.90;67.20
35240;DHT22;21376;50.954;4.716;2023-05-27T18:07:25;22.90;68.00
35240;DHT22;21376;50.954;4.716;2023-05-27T18:09:53;22.80;68.80
35240;DHT22;21376;50.954;4.716;2023-05-27T18:12:20;22.70;67.90
35240;DHT22;21376;50.954;4.716;2023-05-27T18:17:17;22.60;67.80
35240;DHT22;21376;50.954;4.716;2023-05-27T18:19:52;22.40;69.30
35240;DHT22;21376;50.954;4.716;2023-05-27T18:27:25;22.20;68.70
35240;DHT22;21376;50.954;4.716;2023-05-27T18:29:51;22.20;69.00
35240;DHT22;21376;50.954;4.716;2023-05-27T18:32:19;22.10;68.40
35240;DHT22;21376;50.954;4.716;2023-05-27T18:34:48;22.00;69.10
35240;DHT22;21376;50.954;4.716;2023-05-27T18:37:17;21.90;68.60
35240;DHT22;21376;50.954;4.716;2023-05-27T18:42:14;21.80;69.60
35240;DHT22;21376;50.954;4.716;2023-05-27T18:44:39;21.80;69.00